Date,TemperatureHighF,TemperatureAvgF,TemperatureLowF,DewpointHighF,DewpointAvgF,DewpointLowF,HumidityHigh,HumidityAvg,HumidityLow,PressureMaxIn,PressureMinIn,WindSpeedMaxMPH,WindSpeedAvgMPH,GustSpeedMaxMPH,PrecipitationSumIn
2013-1-1,13.0,1.6,-13.0,4.0,-6.6,-20.0,80,69,49,0.00,40.00,9,5,14,0.00
2013-1-2,22.0,16.6,10.0,12.0,8.5,4.0,89,71,55,0.00,40.00,10,6,15,0.00
2013-1-3,21.0,16.6,8.0,17.0,11.7,2.0,86,81,75,0.00,40.00,12,8,18,0.00
2013-1-4,30.0,17.3,8.0,17.0,10.1,2.0,92,75,55,0.00,40.00,10,6,16,0.00
2013-1-5,35.0,17.5,0.0,22.0,10.8,-4.0,92,76,56,0.00,40.00,10,5,16,0.00
2013-1-6,29.0,20.7,10.0,21.0,15.8,7.0,92,81,70,0.00,40.00,11,7,17,0.00
2013-1-7,38.0,24.9,10.0,23.0,16.9,7.0,92,72,51,0.00,40.00,14,8,25,0.01
2013-1-8,38.0,25.0,8.0,31.0,20.2,4.0,96,83,64,0.00,40.00,14,6,20,0.01
2013-1-9,38.0,31.7,21.0,30.0,22.9,16.0,85,71,51,0.00,40.00,18,10,31,0.00
2013-1-10,38.0,29.8,19.0,34.0,22.3,16.0,99,76,45,0.00,40.00,11,7,21,0.25
2013-1-11,40.0,36.3,34.0,40.0,36.3,34.0,100,100,99,0.00,40.00,10,6,19,0.27
2013-1-12,43.0,28.8,14.0,42.0,22.9,6.0,100,79,66,0.00,40.00,17,12,31,0.01
2013-1-13,14.0,11.3,5.0,6.0,3.4,-2.0,73,70,65,0.00,40.00,11,8,21,0.00
2013-1-14,16.0,8.1,0.0,6.0,1.2,-4.0,84,74,62,0.00,40.00,12,6,19,0.00
2013-1-15,31.0,16.1,0.0,14.0,7.0,-5.0,86,69,44,0.00,40.00,12,7,20,0.00
2013-1-16,32.0,24.1,17.0,27.0,16.5,3.0,88,73,49,0.00,40.00,15,11,22,0.00
2013-1-17,17.0,10.6,6.0,3.0,0.2,-5.0,82,63,48,0.00,40.00,13,7,22,0.00
2013-1-18,42.0,22.9,3.0,30.0,17.2,-1.0,89,79,59,0.00,40.00,12,7,19,0.03
2013-1-19,42.0,29.4,6.0,33.0,23.8,-5.0,96,80,58,0.00,40.00,27,11,45,0.01
2013-1-20,9.0,3.8,-1.0,-5.0,-8.2,-10.0,66,57,46,0.00,40.00,21,12,36,0.00
2013-1-21,2.0,-5.5,-10.0,-7.0,-16.7,-22.0,74,57,44,0.00,40.00,16,12,25,0.00
2013-1-22,1.0,-7.2,-13.0,-13.0,-18.1,-22.0,73,58,45,0.00,40.00,12,6,17,0.00
2013-1-23,14.0,3.2,-8.0,8.0,-5.5,-14.0,76,67,54,0.00,40.00,16,7,26,0.00
2013-1-24,9.0,2.4,-7.0,3.0,-8.3,-14.0,79,61,46,0.00,40.00,9,6,19,0.00
2013-1-25,19.0,14.0,8.0,13.0,8.6,1.0,87,79,71,0.00,40.00,11,9,18,0.00
2013-1-26,24.0,12.2,-2.0,11.0,2.8,-7.0,82,67,49,0.00,40.00,12,6,17,0.01
2013-1-27,30.0,25.1,20.0,30.0,19.1,10.0,100,78,61,0.00,40.00,10,8,16,0.01
2013-1-28,33.0,30.8,30.0,31.0,30.2,29.0,100,97,89,0.00,40.00,9,5,14,0.18
2013-1-29,38.0,34.3,30.0,38.0,33.7,29.0,100,98,85,0.00,40.00,11,7,20,0.27
2013-1-30,33.0,23.6,12.0,29.0,20.8,8.0,96,88,82,0.00,40.00,17,12,29,0.02
2013-1-31,12.0,4.8,-2.0,8.0,-3.4,-9.0,83,68,57,0.00,40.00,14,11,22,0.00
2013-2-1,2.0,-3.8,-12.0,-5.0,-14.9,-21.0,75,59,41,0.00,40.00,11,7,18,0.00
2013-2-2,13.0,3.9,-2.0,-4.0,-5.8,-9.0,78,64,43,0.00,40.00,7,4,11,0.00
2013-2-3,15.0,7.0,-1.0,2.0,-1.7,-7.0,83,67,50,0.00,40.00,15,7,24,0.00
2013-2-4,15.0,7.0,1.0,2.0,-4.0,-8.0,83,62,38,0.00,40.00,8,4,11,0.00
2013-2-5,23.0,13.6,1.0,20.0,8.1,-8.0,89,78,59,0.00,40.00,14,7,21,0.00
2013-2-6,23.0,12.0,-8.0,20.0,7.5,-14.0,93,82,71,0.00,40.00,11,4,16,0.01
2013-2-7,27.0,24.5,22.0,26.0,23.4,19.0,100,95,86,0.00,40.00,14,8,21,0.01
2013-2-8,26.0,17.2,6.0,20.0,8.2,2.0,90,69,45,0.00,40.00,11,6,20,0.05
2013-2-9,24.0,15.1,4.0,22.0,12.2,1.0,91,87,82,0.00,40.00,11,7,16,0.02
2013-2-10,37.0,30.6,24.0,37.0,29.6,22.0,100,96,86,0.00,40.00,14,9,22,0.45
2013-2-11,37.0,29.8,24.0,37.0,27.2,19.0,100,90,78,0.00,40.00,17,13,29,0.15
2013-2-12,29.0,22.1,18.0,19.0,15.7,12.0,92,76,58,0.00,40.00,13,8,21,0.01
2013-2-13,36.0,26.8,17.0,29.0,22.0,16.0,97,83,61,0.00,40.00,7,4,12,0.00
2013-2-14,31.0,27.8,15.0,30.0,23.6,5.0,100,85,61,0.00,40.00,14,10,23,0.04
2013-2-15,18.0,10.9,2.0,5.0,0.8,-6.0,79,64,51,0.00,40.00,12,7,18,0.01
2013-2-16,16.0,5.9,-7.0,-1.0,-5.1,-13.0,81,62,39,0.00,40.00,9,5,13,0.00
2013-2-17,21.0,9.1,-17.0,10.0,-4.6,-25.0,81,55,38,0.00,40.00,11,6,18,0.00
2013-2-18,40.0,28.3,20.0,32.0,22.1,10.0,100,78,60,0.00,40.00,15,9,25,0.01
2013-2-19,23.0,10.2,3.0,21.0,1.0,-8.0,93,67,48,0.00,40.00,19,15,32,0.01
2013-2-20,25.0,13.5,-1.0,6.0,1.1,-8.0,75,58,41,0.00,40.00,11,9,21,0.00
2013-2-21,23.0,13.9,-7.0,18.0,5.1,-13.0,88,68,50,0.00,40.00,16,7,27,0.00
2013-2-22,30.0,24.8,21.0,27.0,22.7,17.0,100,92,82,0.00,40.00,14,7,27,0.02
2013-2-23,28.0,24.8,21.0,26.0,20.9,18.0,99,85,69,0.00,40.00,12,6,17,0.04
2013-2-24,37.0,26.5,16.0,27.0,20.7,15.0,96,79,60,0.00,40.00,7,4,12,0.10
2013-2-25,35.0,23.9,10.0,27.0,18.9,7.0,96,81,66,0.00,40.00,6,3,9,0.01
2013-2-26,36.0,29.1,21.0,27.0,22.6,17.0,90,77,64,0.00,40.00,17,10,27,0.00
2013-2-27,33.0,30.5,28.0,29.0,26.3,22.0,94,85,73,0.00,40.00,15,11,27,0.00
2013-2-28,31.0,28.6,22.0,28.0,20.2,12.0,91,71,58,0.00,40.00,13,10,21,0.00
2013-3-1,31.0,24.0,18.0,14.0,11.3,3.0,72,59,43,0.00,40.00,11,8,19,0.00
2013-3-2,29.0,17.0,2.0,9.0,4.2,-3.0,83,59,38,0.00,40.00,8,5,15,0.00
2013-3-3,35.0,15.0,-6.0,9.0,-0.8,-11.0,86,54,24,0.00,40.00,7,3,11,0.00
2013-3-4,30.0,19.6,5.0,15.0,6.6,-5.0,76,58,38,0.00,40.00,12,8,20,0.00
2013-3-5,30.0,26.0,23.0,25.0,17.8,9.0,92,72,51,0.00,40.00,11,8,20,0.00
2013-3-6,33.0,25.4,16.0,22.0,17.6,10.0,86,73,53,0.00,40.00,11,7,16,0.00
2013-3-7,38.0,21.5,0.0,16.0,9.5,-4.0,85,63,34,0.00,40.00,6,3,9,0.00
2013-3-8,40.0,27.5,13.0,24.0,18.4,10.0,90,70,50,0.00,40.00,10,7,15,0.00
2013-3-9,37.0,32.8,29.0,35.0,28.8,23.0,100,86,75,0.00,40.00,11,8,19,0.22
2013-3-10,37.0,34.6,30.0,36.0,33.6,30.0,100,96,85,0.00,40.00,16,8,26,0.35
2013-3-11,32.0,28.5,24.0,31.0,27.1,19.0,100,95,82,0.00,40.00,16,9,26,0.28
2013-3-12,30.0,24.7,19.0,22.0,17.7,11.0,90,75,58,0.00,40.00,15,9,23,0.01
2013-3-13,32.0,21.6,15.0,13.0,6.5,0.0,83,55,27,0.00,40.00,13,9,19,0.01
2013-3-14,34.0,21.5,4.0,26.0,13.4,1.0,92,72,46,0.00,40.00,9,4,12,0.00
2013-3-15,37.0,30.0,23.0,31.0,27.3,22.0,100,90,70,0.00,40.00,11,5,19,0.05
2013-3-16,26.0,21.3,15.0,25.0,12.6,4.0,97,70,50,0.00,40.00,13,8,19,0.03
2013-3-17,27.0,16.8,5.0,11.0,3.0,-3.0,72,55,39,0.00,40.00,11,8,19,0.03
2013-3-18,30.0,21.8,15.0,28.0,18.0,9.0,95,85,72,0.00,40.00,14,8,25,0.06
2013-3-19,25.0,16.9,11.0,11.0,4.7,-1.0,82,60,43,0.00,40.00,21,16,33,0.03
2013-3-20,18.0,10.4,3.0,2.0,-2.5,-8.0,70,56,47,0.00,40.00,16,11,28,0.00
2013-3-21,26.0,14.1,0.0,9.0,2.9,-5.0,79,62,46,0.00,40.00,9,6,15,0.00
2013-3-22,36.0,20.0,-1.0,16.0,8.2,-6.0,86,63,41,0.00,40.00,8,4,13,0.00
2013-3-23,43.0,27.9,11.0,22.0,16.2,8.0,90,64,38,0.00,40.00,5,3,10,0.00
2013-3-24,35.0,30.1,27.0,22.0,20.5,18.0,79,68,54,0.00,40.00,14,8,22,0.00
2013-3-25,39.0,29.0,20.0,23.0,18.8,14.0,86,67,45,0.00,40.00,12,9,22,0.00
2013-3-26,41.0,32.1,26.0,24.0,20.1,16.0,79,62,44,0.00,40.00,10,6,17,0.00
2013-3-27,42.0,35.0,29.0,24.0,20.1,16.0,75,57,34,0.00,40.00,10,5,16,0.00
2013-3-28,44.0,39.5,28.0,17.0,15.7,14.0,60,38,30,0.00,40.00,9,6,14,0.00
2013-3-29,50.0,35.5,15.0,29.0,18.0,13.0,91,55,26,0.00,40.00,7,3,10,0.00
2013-3-30,40.0,37.2,33.0,40.0,29.7,-99.9,100,81,52,0.00,40.00,13,7,17,0.37
2013-3-31,38.0,34.2,27.0,36.0,27.0,14.0,100,77,42,0.00,40.00,19,10,33,0.02
2013-4-1,31.0,25.9,18.0,16.0,9.7,4.0,63,50,41,0.00,40.00,16,11,26,0.01
2013-4-2,35.0,26.5,17.0,15.0,12.5,11.0,76,56,40,0.00,40.00,13,8,21,0.00
2013-4-3,42.0,29.2,11.0,18.0,12.1,6.0,91,54,25,0.00,40.00,11,5,17,0.00
2013-4-4,49.0,39.1,31.0,33.0,23.8,17.0,64,54,44,0.00,40.00,12,9,20,0.00
2013-4-5,44.0,35.6,24.0,31.0,18.0,15.0,100,51,31,0.00,40.00,11,5,16,0.00
2013-4-6,46.0,37.2,30.0,40.0,32.1,27.0,100,83,58,0.00,40.00,15,10,25,0.29
2013-4-7,44.0,37.4,33.0,38.0,32.3,30.0,100,82,64,0.00,40.00,15,8,24,0.24
2013-4-8,40.0,36.8,35.0,36.0,33.7,31.0,96,89,83,0.00,40.00,10,5,16,0.00
2013-4-9,40.0,36.5,34.0,40.0,34.4,20.0,100,93,53,0.00,40.00,14,8,23,0.54
2013-4-10,40.0,35.2,28.0,29.0,25.4,16.0,100,70,41,0.00,40.00,16,10,23,0.54
2013-4-11,36.0,32.2,28.0,32.0,25.0,17.0,97,77,46,0.00,40.00,18,13,34,0.24
2013-4-12,36.0,31.2,28.0,32.0,29.1,28.0,100,93,80,0.00,40.00,11,6,17,0.13
2013-4-13,36.0,30.6,26.0,30.0,25.0,22.0,97,80,63,0.00,40.00,14,9,21,0.01
2013-4-14,34.0,28.2,21.0,34.0,26.7,20.0,100,94,73,0.00,40.00,12,8,24,0.17
2013-4-15,48.0,38.7,33.0,41.0,31.9,26.0,100,80,42,0.00,40.00,16,9,32,0.65
2013-4-16,45.0,37.3,31.0,31.0,28.4,26.0,96,71,53,0.00,40.00,12,7,19,0.03
2013-4-17,40.0,35.5,28.0,35.0,29.5,26.0,97,79,67,0.00,40.00,14,9,29,0.01
2013-4-18,38.0,36.8,35.0,38.0,36.7,35.0,100,100,97,0.00,40.00,13,7,25,0.43
2013-4-19,37.0,31.2,26.0,37.0,26.2,16.0,100,83,59,0.00,40.00,21,14,35,0.19
2013-4-20,40.0,30.1,22.0,18.0,14.4,10.0,84,55,31,0.00,40.00,14,8,23,0.00
2013-4-21,41.0,33.7,28.0,35.0,27.0,11.0,100,78,47,0.00,40.00,14,10,22,0.09
2013-4-22,47.0,43.6,39.0,45.0,42.8,35.0,100,97,78,0.00,40.00,11,7,19,0.25
2013-4-23,44.0,37.7,27.0,44.0,32.7,23.0,100,83,63,0.00,40.00,13,9,22,0.18
2013-4-24,51.0,37.4,24.0,30.0,24.4,19.0,99,65,35,0.00,40.00,14,7,26,0.01
2013-4-25,48.0,38.4,32.0,34.0,29.7,22.0,100,74,42,0.00,40.00,12,8,26,0.17
2013-4-26,71.0,51.5,32.0,47.0,35.2,26.0,81,57,31,0.00,40.00,17,9,26,0.04
2013-4-27,72.0,57.9,44.0,51.0,46.0,42.0,100,68,36,0.00,40.00,14,8,20,0.02
2013-4-28,73.0,58.1,42.0,49.0,42.4,39.0,100,61,30,0.00,40.00,13,7,20,0.00
2013-4-29,73.0,59.5,50.0,58.0,50.1,40.0,100,74,48,0.00,40.00,13,6,20,0.08
2013-4-30,83.0,74.5,56.0,57.0,51.2,39.0,89,46,34,0.00,40.00,20,12,30,0.00
2013-5-1,60.0,52.6,38.0,48.0,42.6,32.0,100,71,48,0.00,40.00,15,9,26,0.02
2013-5-2,38.0,35.5,32.0,35.0,32.2,29.0,95,88,79,0.00,40.00,14,12,24,0.09
2013-5-3,40.0,34.6,31.0,40.0,33.6,29.0,100,97,89,0.00,40.00,12,8,18,0.46
2013-5-4,74.0,56.7,40.0,51.0,43.3,37.0,100,68,26,0.00,40.00,12,7,19,0.05
2013-5-5,73.0,57.8,45.0,46.0,41.5,34.0,96,60,24,0.00,40.00,8,5,16,0.03
2013-5-6,76.0,59.1,40.0,48.0,40.2,34.0,100,58,22,0.00,40.00,8,3,20,0.00
2013-5-7,79.0,63.5,43.0,48.0,37.4,29.0,100,48,16,0.00,40.00,12,5,19,0.00
2013-5-8,82.0,67.2,49.0,46.0,39.1,30.0,69,39,21,0.00,40.00,6,4,17,0.00
2013-5-9,67.0,54.0,42.0,54.0,48.3,41.0,99,82,38,0.00,40.00,15,7,26,0.76
2013-5-10,64.0,49.3,39.0,41.0,34.8,-99.9,98,66,28,0.00,40.00,11,7,19,0.30
2013-5-11,49.0,44.1,36.0,45.0,32.0,-99.9,98,69,33,0.00,40.00,21,13,35,0.05
2013-5-12,53.0,42.0,33.0,31.0,21.1,15.0,83,46,23,0.00,40.00,15,11,24,0.02
2013-5-13,62.0,45.9,26.0,32.0,24.9,16.0,95,50,23,0.00,40.00,11,5,17,0.00
2013-5-14,83.0,63.6,45.0,58.0,42.8,29.0,74,49,22,0.00,40.00,14,7,23,0.01
2013-5-15,75.0,66.2,57.0,54.0,41.9,35.0,68,43,25,0.00,40.00,13,8,22,0.01
2013-5-16,81.0,57.7,47.0,55.0,22.5,-99.9,100,51,23,0.00,40.00,9,5,17,0.00
2013-5-17,60.0,51.1,48.0,53.0,38.0,-99.9,100,81,47,0.00,40.00,10,8,18,0.10
2013-5-18,76.0,61.7,51.0,63.0,55.4,49.0,97,81,62,0.00,40.00,12,8,19,0.02
2013-5-19,83.0,71.5,58.0,65.0,60.8,55.0,100,72,50,0.00,40.00,14,9,25,0.00
2013-5-20,80.0,69.8,62.0,64.0,59.3,52.0,100,73,41,0.00,40.00,18,10,28,0.19
2013-5-21,72.0,65.0,59.0,65.0,59.6,54.0,100,84,59,0.00,40.00,12,6,20,0.33
2013-5-22,62.0,55.8,51.0,62.0,55.6,51.0,100,100,80,0.00,40.00,13,6,22,1.33
2013-5-23,60.0,51.0,42.0,51.0,37.9,30.0,100,66,34,0.00,40.00,15,11,24,0.48
2013-5-24,64.0,50.5,33.0,42.0,34.4,31.0,100,59,32,0.00,40.00,8,5,14,0.00
2013-5-25,66.0,55.7,46.0,43.0,38.4,34.0,88,55,34,0.00,40.00,11,7,21,0.00
2013-5-26,66.0,55.6,44.0,42.0,37.5,34.0,94,53,36,0.00,40.00,11,8,21,0.00
2013-5-27,61.0,55.0,51.0,51.0,44.2,34.0,100,69,47,0.00,40.00,15,9,27,0.19
2013-5-28,57.0,53.5,50.0,57.0,53.5,50.0,100,100,100,0.00,40.00,8,6,14,0.37
2013-5-29,82.0,64.2,56.0,70.0,60.9,56.0,100,91,47,0.00,40.00,12,4,30,1.32
2013-5-30,83.0,70.1,62.0,72.0,66.9,62.0,100,90,61,0.00,40.00,19,11,30,1.71
2013-5-31,78.0,69.0,62.0,68.0,60.7,55.0,98,77,52,0.00,40.00,19,12,27,0.04
2013-6-1,73.0,62.5,52.0,64.0,57.1,49.0,100,84,64,0.00,40.00,11,6,21,0.29
2013-6-2,60.0,50.6,44.0,49.0,41.5,38.0,100,73,50,0.00,40.00,13,9,29,0.29
2013-6-3,70.0,56.4,38.0,52.0,43.8,38.0,100,69,35,0.00,40.00,8,3,15,0.00
2013-6-4,60.0,54.1,51.0,55.0,49.2,39.0,100,85,45,0.00,40.00,8,5,14,0.26
2013-6-5,56.0,51.9,50.0,55.0,51.1,49.0,100,97,86,0.00,40.00,15,7,24,0.42
2013-6-6,55.0,51.9,50.0,53.0,51.0,50.0,100,97,85,0.00,40.00,8,5,14,0.13
2013-6-7,67.0,57.3,50.0,55.0,50.2,47.0,98,78,55,0.00,40.00,5,3,13,0.01
2013-6-8,69.0,58.0,51.0,57.0,52.2,47.0,100,84,49,0.00,40.00,10,4,16,0.31
2013-6-9,74.0,61.3,53.0,63.0,56.2,50.0,98,84,57,0.00,40.00,14,7,24,0.17
2013-6-10,80.0,69.7,58.0,65.0,62.2,58.0,100,79,57,0.00,40.00,7,4,13,0.09
2013-6-11,79.0,67.3,55.0,68.0,61.4,55.0,100,83,58,0.00,40.00,7,2,15,0.00
2013-6-12,73.0,65.8,61.0,65.0,62.4,59.0,100,90,67,0.00,40.00,10,4,17,0.33
2013-6-13,76.0,66.2,58.0,62.0,55.6,51.0,100,72,43,0.00,40.00,11,7,24,12.32
2013-6-14,77.0,65.2,50.0,58.0,51.8,47.0,100,65,42,0.00,40.00,9,4,16,12.28
2013-6-15,75.0,66.2,59.0,69.0,63.6,56.0,100,92,76,0.00,40.00,10,5,33,0.32
2013-6-16,81.0,68.0,53.0,65.0,55.6,48.0,100,71,34,0.00,40.00,13,5,21,0.15
2013-6-17,78.0,66.2,53.0,63.0,57.5,52.0,100,75,48,0.00,40.00,12,5,22,0.18
2013-6-18,72.0,62.4,52.0,60.0,48.4,42.0,100,63,36,0.00,40.00,7,6,15,0.18
2013-6-19,78.0,63.2,46.0,59.0,50.7,45.0,100,67,44,0.00,40.00,7,4,18,0.00
2013-6-20,84.0,68.1,57.0,62.0,57.0,53.0,89,71,42,0.00,40.00,13,6,20,0.00
2013-6-22,79.0,72.7,63.0,71.0,68.7,63.0,100,88,70,0.00,40.00,12,6,21,0.65
2013-6-23,82.0,72.5,64.0,73.0,67.4,64.0,100,85,63,0.00,40.00,18,10,30,0.15
2013-6-24,81.0,72.0,62.0,73.0,68.9,62.0,100,90,76,0.00,40.00,11,4,19,0.01
2013-6-25,82.0,72.9,64.0,71.0,67.7,64.0,100,85,65,0.00,40.00,7,3,14,0.00
2013-6-26,83.0,73.4,66.0,75.0,70.5,66.0,100,92,68,0.00,40.00,8,5,17,0.68
2013-6-27,84.0,72.6,62.0,73.0,65.4,60.0,100,81,46,0.00,40.00,13,4,26,0.68
2013-6-28,70.0,65.6,61.0,68.0,63.7,59.0,100,94,80,0.00,40.00,11,6,21,0.16
2013-6-29,72.0,64.1,60.0,65.0,59.6,51.0,100,87,60,0.00,40.00,12,7,21,0.21
2013-6-30,80.0,66.6,53.0,56.0,49.1,44.0,88,58,30,0.00,40.00,10,5,16,0.01
2013-7-1,82.0,67.7,51.0,65.0,55.6,51.0,100,70,39,0.00,40.00,6,2,25,0.00
2013-7-2,77.0,66.7,56.0,58.0,51.0,45.0,85,60,37,0.00,40.00,7,4,13,0.00
2013-7-3,74.0,63.1,49.0,60.0,53.7,45.0,100,75,38,0.00,40.00,7,2,14,0.00
2013-7-4,82.0,68.8,55.0,64.0,59.4,55.0,100,76,43,0.00,40.00,10,5,18,0.00
2013-7-5,85.0,72.8,59.0,65.0,60.4,56.0,100,69,37,0.00,40.00,13,6,23,0.00
2013-7-6,87.0,72.8,61.0,67.0,64.7,61.0,100,78,48,0.00,40.00,10,6,18,0.00
2013-7-7,88.0,76.2,67.0,72.0,69.0,65.0,98,80,50,0.00,40.00,11,6,19,0.00
2013-7-8,87.0,73.9,68.0,74.0,69.2,-99.9,100,90,61,0.00,40.00,7,3,16,1.51
2013-7-9,84.0,74.7,66.0,75.0,70.7,66.0,100,89,61,0.00,40.00,12,6,28,0.10
2013-7-10,76.0,68.0,56.0,71.0,55.5,-99.9,100,71,49,0.00,40.00,14,8,27,0.10
2013-7-11,82.0,69.1,53.0,66.0,57.5,53.0,100,72,42,0.00,40.00,6,2,11,0.00
2013-7-12,82.0,70.7,57.0,65.0,58.7,55.0,100,70,45,0.00,40.00,13,6,19,0.00
2013-7-13,81.0,70.5,60.0,64.0,60.2,55.0,94,72,50,0.00,40.00,11,6,19,0.00
2013-7-14,86.0,74.0,60.0,69.0,64.0,59.0,98,74,45,0.00,40.00,8,4,15,0.00
2013-7-15,87.0,75.6,63.0,76.0,69.7,63.0,100,84,61,0.00,40.00,8,2,13,0.00
2013-7-16,90.0,84.1,75.0,75.0,72.9,70.0,100,71,53,0.00,40.00,7,5,22,0.04
2013-7-17,91.0,80.6,69.0,77.0,71.9,69.0,100,78,49,0.00,40.00,7,3,15,0.04
2013-7-18,91.0,83.2,72.0,75.0,71.2,69.0,99,69,50,0.00,40.00,11,7,22,0.00
2013-7-19,87.0,78.6,63.0,74.0,66.8,59.0,97,69,46,0.00,40.00,14,8,27,0.01
2013-7-20,78.0,67.8,58.0,64.0,57.3,-99.9,100,74,49,0.00,40.00,6,3,13,0.01
2013-7-21,69.0,62.7,57.0,63.0,58.7,53.0,100,87,75,0.00,40.00,8,6,16,0.18
2013-7-22,84.0,69.8,57.0,72.0,65.7,57.0,100,88,64,0.00,40.00,14,6,21,0.01
2013-7-23,72.0,63.8,55.0,67.0,52.9,49.0,96,70,47,0.00,40.00,13,7,22,0.00
2013-7-24,75.0,60.8,46.0,60.0,51.4,46.0,100,75,41,0.00,40.00,5,2,12,0.00
2013-7-25,81.0,64.5,52.0,66.0,59.9,52.0,100,87,58,0.00,40.00,12,5,22,0.12
2013-7-26,74.0,64.4,54.0,67.0,58.9,48.0,100,84,50,0.00,40.00,13,8,27,0.31
2013-7-27,57.0,51.5,46.0,51.0,47.3,44.0,100,86,69,0.00,40.00,10,6,18,0.02
2013-7-28,65.0,56.2,47.0,55.0,51.9,47.0,100,87,64,0.00,40.00,14,8,25,0.02
2013-7-29,77.0,62.8,48.0,60.0,53.6,48.0,100,75,47,0.00,40.00,7,3,18,0.00
2013-7-30,74.0,64.4,56.0,66.0,60.9,56.0,100,89,63,0.00,40.00,5,3,10,0.00
2013-7-31,77.0,67.1,56.0,67.0,62.0,56.0,100,85,63,0.00,40.00,8,4,14,0.00
2013-8-1,77.0,64.5,49.0,60.0,53.4,49.0,100,73,41,0.00,40.00,9,4,18,0.00
2013-8-2,78.0,64.6,51.0,62.0,55.3,51.0,100,76,42,0.00,40.00,10,4,17,0.00
2013-8-3,75.0,62.7,45.0,59.0,50.8,45.0,100,70,42,0.00,40.00,9,4,18,0.00
2013-8-4,75.0,62.1,44.0,57.0,51.2,44.0,100,73,39,0.00,40.00,3,1,9,0.00
2013-8-5,71.0,62.3,51.0,66.0,59.8,51.0,100,92,74,0.00,40.00,10,5,19,0.00
2013-8-6,81.0,70.3,63.0,70.0,62.3,56.0,100,79,42,0.00,40.00,9,5,18,0.00
2013-8-7,75.0,64.7,52.0,70.0,58.4,52.0,100,83,52,0.00,40.00,9,4,30,0.52
2013-8-8,78.0,61.6,44.0,60.0,50.5,44.0,100,74,37,0.00,40.00,6,2,11,0.00
2013-8-9,76.0,64.6,52.0,63.0,54.5,49.0,100,74,43,0.00,40.00,10,4,20,0.00
2013-8-10,71.0,63.9,54.0,60.0,55.5,51.0,100,77,49,0.00,40.00,6,2,10,0.00
2013-8-11,75.0,61.4,51.0,64.0,58.2,51.0,100,91,61,0.00,40.00,6,2,14,0.00
2013-8-12,78.0,63.8,52.0,68.0,56.0,51.0,100,80,43,0.00,40.00,9,4,17,0.03
2013-8-13,70.0,56.5,40.0,51.0,45.0,-99.9,100,72,45,0.00,40.00,9,4,17,0.02
2013-8-14,75.0,56.0,36.0,53.0,46.1,36.0,100,75,37,0.00,40.00,5,2,11,0.00
2013-8-15,78.0,56.8,44.0,59.0,38.2,-99.9,100,67,39,0.00,40.00,8,3,15,0.00
2013-8-16,81.0,62.8,43.0,62.0,49.3,-99.9,100,72,38,0.00,40.00,5,2,11,0.00
2013-8-17,82.0,66.3,50.0,61.0,52.4,-99.9,100,70,36,0.00,40.00,7,2,16,0.00
2013-8-18,82.0,66.8,49.0,64.0,57.1,49.0,100,76,41,0.00,40.00,10,3,26,0.00
2013-8-19,82.0,63.2,52.0,68.0,51.7,-99.9,100,81,50,0.00,40.00,10,4,19,0.00
2013-8-20,86.0,71.9,60.0,69.0,63.3,-99.9,100,80,54,0.00,40.00,12,6,23,0.00
2013-8-21,90.0,75.0,62.0,73.0,69.0,62.0,100,84,58,0.00,40.00,13,7,27,0.12
2013-8-22,83.0,68.5,59.0,67.0,60.5,54.0,100,81,37,0.00,40.00,5,2,17,0.12
2013-8-23,84.0,69.1,56.0,63.0,59.3,56.0,100,75,43,0.00,40.00,7,5,14,0.00
2013-8-24,84.0,69.4,56.0,70.0,59.5,-99.9,100,76,44,0.00,40.00,12,6,19,0.00
2013-8-25,93.0,80.4,71.0,74.0,71.4,69.0,98,77,49,0.00,40.00,13,10,22,0.00
2013-8-26,91.0,77.9,68.0,81.0,73.2,67.0,100,87,57,0.00,40.00,14,6,23,1.10
2013-8-27,91.0,79.6,73.0,77.0,74.8,73.0,100,87,57,0.00,40.00,7,4,13,0.19
2013-8-28,86.0,79.8,72.0,73.0,70.5,69.0,97,75,58,0.00,40.00,6,4,9,0.00
2013-8-29,89.0,76.0,64.0,76.0,69.7,64.0,100,84,51,0.00,40.00,10,4,17,0.00
2013-8-30,83.0,75.1,66.0,77.0,69.5,61.0,100,84,58,0.00,40.00,9,6,17,0.00
2013-8-31,82.0,67.7,53.0,65.0,59.4,-99.9,100,79,55,0.00,40.00,7,3,12,0.00
2013-9-1,78.0,69.5,64.0,69.0,63.3,60.0,99,82,54,0.00,40.00,12,6,21,0.78
2013-9-2,66.0,60.0,50.0,60.0,52.8,49.0,95,78,61,0.00,40.00,9,6,17,0.11
2013-9-3,76.0,59.0,38.0,54.0,48.8,38.0,100,73,41,0.00,40.00,7,3,13,0.00
2013-9-4,80.0,66.0,50.0,66.0,59.0,50.0,100,80,59,0.00,40.00,6,3,12,0.00
2013-9-5,76.0,62.8,52.0,56.0,52.3,48.0,96,71,44,0.00,40.00,8,4,15,0.00
2013-9-6,87.0,67.8,49.0,65.0,57.2,48.0,96,72,47,0.00,40.00,10,5,19,0.00
2013-9-7,89.0,74.7,66.0,71.0,64.1,-99.9,92,74,51,0.00,40.00,10,4,17,0.00
2013-9-8,73.0,65.0,56.0,64.0,54.6,50.0,87,70,52,0.00,40.00,10,7,18,0.00
2013-9-9,86.0,73.1,62.0,73.0,65.8,55.0,95,79,62,0.00,40.00,13,7,20,0.00
2013-9-10,85.0,76.6,67.0,70.0,66.3,62.0,98,72,51,0.00,40.00,8,4,16,0.00
2013-9-11,85.0,70.9,56.0,66.0,60.6,55.0,98,73,41,0.00,40.00,8,4,20,0.00
2013-9-12,68.0,59.3,50.0,55.0,50.5,43.0,100,75,49,0.00,40.00,12,6,22,0.00
2013-9-13,66.0,51.5,35.0,45.0,40.6,35.0,100,71,38,0.00,40.00,6,3,14,0.00
2013-9-14,71.0,54.1,36.0,53.0,41.8,-99.9,100,70,38,0.00,40.00,9,4,18,0.01
2013-9-15,65.0,55.8,49.0,55.0,51.8,42.0,100,87,71,0.00,40.00,9,5,20,0.65
2013-9-16,64.0,48.8,31.0,43.0,39.1,31.0,99,73,40,0.00,40.00,7,3,16,0.01
2013-9-17,66.0,52.1,34.0,55.0,45.9,34.0,100,82,50,0.00,40.00,10,4,18,0.04
2013-9-18,66.0,57.5,56.0,63.0,56.5,55.0,99,97,90,0.00,40.00,7,5,12,0.68
2013-9-19,80.0,71.2,64.0,71.0,68.0,63.0,100,90,71,0.00,40.00,14,6,23,0.81
2013-9-20,66.0,62.0,50.0,66.0,58.7,47.0,100,90,67,0.00,40.00,9,5,19,0.70
2013-9-21,58.0,49.9,42.0,48.0,42.3,-99.9,100,79,58,0.00,40.00,12,6,21,0.00
2013-9-22,63.0,48.2,31.0,43.0,39.6,31.0,100,76,44,0.00,40.00,8,4,12,0.00
2013-9-23,68.0,53.1,41.0,51.0,45.9,40.0,98,79,53,0.00,40.00,10,6,18,0.00
2013-9-24,72.0,56.0,44.0,54.0,49.5,44.0,100,82,48,0.00,40.00,6,4,10,0.01
2013-9-25,69.0,54.8,39.0,52.0,47.9,39.0,100,81,50,0.00,40.00,6,3,15,0.01
2013-9-26,75.0,58.3,42.0,56.0,50.8,42.0,100,80,46,0.00,40.00,10,6,18,0.01
2013-9-27,81.0,64.3,50.0,55.0,50.8,47.0,92,66,34,0.00,40.00,14,7,22,0.01
2013-9-28,78.0,60.4,50.0,64.0,50.9,-99.9,99,76,50,0.00,40.00,19,9,30,0.42
2013-9-29,71.0,55.2,38.0,51.0,46.2,38.0,100,77,38,0.00,40.00,10,4,19,0.18
2013-9-30,72.0,57.9,47.0,49.0,45.6,43.0,90,67,38,0.00,40.00,18,8,30,0.01
2013-10-1,62.0,55.6,49.0,42.0,40.2,39.0,72,57,48,0.00,40.00,3,3,6,0.00
2013-10-2,75.0,60.4,33.0,47.0,40.7,33.0,100,55,26,0.00,40.00,6,3,12,0.00
2013-10-3,66.0,58.3,50.0,59.0,51.0,39.0,98,79,48,0.00,40.00,9,6,17,0.70
2013-10-4,56.0,55.3,54.0,55.0,54.5,53.0,99,97,95,0.00,40.00,10,6,17,0.48
2013-10-5,61.0,58.1,55.0,61.0,57.8,55.0,100,99,97,0.00,40.00,11,8,22,2.67
2013-10-6,59.0,50.0,38.0,56.0,42.9,37.0,100,80,43,0.00,40.00,8,4,17,0.91
2013-10-7,65.0,50.8,38.0,47.0,43.0,37.0,99,78,43,0.00,40.00,11,6,20,0.03
2013-10-8,75.0,54.6,36.0,47.0,42.8,36.0,100,70,33,0.00,40.00,14,6,24,0.01
2013-10-9,73.0,59.0,46.0,51.0,47.6,44.0,93,69,42,0.00,40.00,12,6,20,0.01
2013-10-10,73.0,59.0,42.0,50.0,46.1,41.0,98,66,37,0.00,40.00,11,5,18,0.00
2013-10-11,74.0,60.5,49.0,58.0,51.6,47.0,94,75,48,0.00,40.00,18,8,31,0.00
2013-10-12,66.0,58.5,49.0,56.0,45.1,-99.9,84,64,44,0.00,40.00,13,9,27,0.00
2013-10-13,59.0,48.0,34.0,42.0,37.5,33.0,97,70,38,0.00,40.00,10,5,20,0.00
2013-10-14,61.0,45.1,30.0,42.0,35.7,30.0,99,74,41,0.00,40.00,9,4,17,0.00
2013-10-15,55.0,50.2,46.0,54.0,47.4,40.0,98,91,79,0.00,40.00,10,7,24,0.75
2013-10-16,51.0,46.7,40.0,47.0,42.9,38.0,100,87,69,0.00,40.00,9,5,17,0.06
2013-10-17,55.0,41.0,28.0,43.0,35.4,28.0,99,83,49,0.00,40.00,7,2,13,0.00
2013-10-18,45.0,41.3,32.0,44.0,39.2,32.0,99,93,75,0.00,40.00,11,4,21,0.08
2013-10-19,52.0,35.9,29.0,40.0,30.9,-99.9,99,87,41,0.00,40.00,13,2,25,0.14
2013-10-20,42.0,35.2,29.0,41.0,34.7,28.0,100,98,93,0.00,40.00,9,4,17,0.14
2013-10-21,42.0,35.1,33.0,41.0,26.9,20.0,97,73,53,0.00,40.00,12,9,22,0.03
2013-10-22,47.0,35.8,27.0,29.0,25.4,23.0,92,67,41,0.00,40.00,10,6,20,0.00
2013-10-23,40.0,32.2,24.0,28.0,24.9,22.0,92,75,57,0.00,40.00,9,4,19,0.00
2013-10-24,42.0,34.4,28.0,28.0,25.0,22.0,94,69,47,0.00,40.00,12,6,21,0.00
2013-10-25,50.0,39.0,28.0,33.0,28.0,24.0,95,68,42,0.00,40.00,15,7,27,0.00
2013-10-26,50.0,43.3,38.0,37.0,30.1,-99.9,77,62,51,0.00,40.00,17,8,29,0.00
2013-10-27,56.0,40.9,28.0,31.0,28.5,26.0,93,65,33,0.00,40.00,10,5,22,0.00
2013-10-28,44.0,35.4,29.0,31.0,20.9,-99.9,79,60,36,0.00,40.00,12,7,20,0.00
2013-10-29,41.0,34.1,27.0,35.0,27.7,20.0,88,77,68,0.00,40.00,9,6,16,0.00
2013-10-30,51.0,44.8,39.0,51.0,43.7,35.0,100,96,87,0.00,40.00,7,4,15,0.01
2013-10-31,54.0,49.7,42.0,54.0,49.6,41.0,100,100,97,0.00,40.00,11,4,20,0.32
2013-11-1,44.0,41.9,40.0,42.0,39.6,36.0,100,92,80,0.00,40.00,11,6,20,0.01
2013-11-2,42.0,37.2,28.0,37.0,32.5,-99.9,99,87,76,0.00,40.00,7,4,15,0.01
2013-11-3,47.0,36.0,24.0,37.0,31.0,23.0,99,84,56,0.00,40.00,13,6,21,0.00
2013-11-4,49.0,44.1,40.0,45.0,38.3,34.0,99,81,63,0.00,40.00,14,11,26,0.03
2013-11-5,46.0,38.9,30.0,42.0,37.5,30.0,100,95,75,0.00,40.00,8,3,20,0.69
2013-11-6,41.0,35.7,28.0,38.0,30.2,22.0,97,81,53,0.00,40.00,14,9,22,0.95
2013-11-7,38.0,28.7,22.0,27.0,23.0,21.0,96,80,50,0.00,40.00,9,4,18,0.02
2013-11-8,40.0,31.6,22.0,34.0,27.3,20.0,97,86,68,0.00,40.00,12,6,23,0.15
2013-11-9,43.0,39.6,36.0,39.0,31.8,-99.9,94,77,60,0.00,40.00,14,11,34,0.22
2013-11-10,46.0,39.5,35.0,32.0,27.2,25.0,90,62,45,0.00,40.00,13,8,26,0.00
2013-11-11,37.0,28.0,20.0,32.0,16.4,5.0,91,63,37,0.00,40.00,12,8,24,0.01
2013-11-12,27.0,19.8,13.0,12.0,9.3,7.0,79,64,44,0.00,40.00,10,7,17,0.01
2013-11-13,48.0,29.8,14.0,26.0,17.3,10.0,84,62,41,0.00,40.00,14,8,26,0.00
2013-11-14,42.0,35.8,28.0,36.0,25.4,19.0,91,67,49,0.00,40.00,8,5,16,0.01
2013-11-15,53.0,37.9,26.0,37.0,31.1,25.0,97,78,51,0.00,40.00,7,3,12,0.01
2013-11-16,53.0,42.9,37.0,52.0,39.4,-99.9,99,91,78,0.00,40.00,13,9,25,0.29
2013-11-17,53.0,43.9,36.0,52.0,42.1,29.0,100,94,77,0.00,40.00,17,9,34,0.21
2013-11-18,36.0,29.3,22.0,29.0,20.8,17.0,86,70,59,0.00,40.00,18,13,34,0.01
2013-11-19,38.0,27.6,15.0,25.0,19.4,13.0,93,73,47,0.00,40.00,11,5,19,0.00
2013-11-20,37.0,34.1,32.0,33.0,28.3,25.0,99,80,62,0.00,40.00,13,9,21,0.22
2013-11-21,36.0,33.7,31.0,36.0,32.9,26.0,100,97,80,0.00,40.00,8,3,17,0.17
2013-11-22,31.0,26.3,21.0,27.0,17.3,10.0,93,70,45,0.00,40.00,10,7,19,0.01
2013-11-23,21.0,11.9,4.0,13.0,-0.7,-99.9,76,60,41,0.00,40.00,14,9,24,0.01
2013-11-24,25.0,13.1,0.0,6.0,0.6,-5.0,81,59,36,0.00,40.00,13,7,23,0.00
2013-11-25,36.0,29.4,22.0,26.0,18.0,6.0,77,63,45,0.00,40.00,14,10,26,0.00
2013-11-26,33.0,20.4,9.0,24.0,9.2,-1.0,84,62,44,0.00,40.00,15,9,26,0.00
2013-11-27,25.0,15.6,7.0,17.0,8.1,1.0,90,73,51,0.00,40.00,8,5,14,0.02
2013-11-28,26.0,18.6,6.0,17.0,13.3,3.0,91,80,59,0.00,40.00,8,4,15,0.02
2013-11-29,26.0,14.5,-1.0,17.0,8.3,-6.0,87,76,65,0.00,40.00,9,3,16,0.00
2013-11-30,37.0,30.1,24.0,26.0,21.0,-99.9,82,71,59,0.00,40.00,9,5,13,0.00
2013-12-1,40.0,27.6,17.0,28.0,22.8,15.0,95,83,59,0.00,40.00,4,2,7,0.00
2013-12-2,35.0,28.1,19.0,31.0,25.1,18.0,98,88,75,0.00,40.00,10,5,18,0.03
2013-12-3,32.0,30.8,28.0,32.0,29.8,27.0,98,96,92,0.00,40.00,10,8,17,0.17
2013-12-4,36.0,31.6,28.0,36.0,31.1,27.0,100,98,89,0.00,40.00,13,7,25,0.21
2013-12-5,31.0,13.9,3.0,28.0,5.8,-3.0,89,70,56,0.00,40.00,15,12,29,0.03
2013-12-6,7.0,0.6,-4.0,-3.0,-6.9,-10.0,77,70,57,0.00,40.00,10,7,18,0.00
2013-12-7,4.0,-3.4,-9.0,-9.0,-12.9,-99.9,79,66,52,0.00,40.00,7,4,14,0.00
2013-12-8,11.0,4.2,-7.0,7.0,-1.1,-13.0,85,78,73,0.00,40.00,8,4,14,0.00
2013-12-9,11.0,4.7,-8.0,8.0,-2.6,-14.0,86,72,51,0.00,40.00,13,7,25,0.00
2013-12-10,10.0,2.4,-8.0,0.0,-6.2,-14.0,76,67,53,0.00,40.00,15,7,24,0.00
2013-12-11,6.0,-3.2,-12.0,0.0,-12.7,-18.0,75,63,47,0.00,40.00,11,7,20,0.00
2013-12-12,14.0,5.4,-8.0,7.0,-2.6,-15.0,77,69,57,0.00,40.00,8,4,15,0.00
2013-12-13,16.0,13.1,10.0,7.0,4.5,0.0,74,68,61,0.00,40.00,10,6,17,0.00
2013-12-14,20.0,13.9,10.0,14.0,7.3,-99.9,89,78,73,0.00,40.00,9,5,20,0.00
2013-12-15,12.0,-0.6,-11.0,6.0,-9.4,-18.0,77,66,51,0.00,40.00,12,8,21,0.00
2013-12-16,12.0,1.8,-13.0,9.0,-4.0,-19.0,89,76,64,0.00,40.00,7,4,15,0.00
2013-12-17,29.0,21.4,12.0,23.0,15.8,6.0,94,80,60,0.00,40.00,15,9,25,0.01
2013-12-18,26.0,12.6,-1.0,12.0,4.3,-5.0,85,70,50,0.00,40.00,11,4,17,0.01
2013-12-19,26.0,19.9,11.0,19.0,14.8,9.0,94,80,68,0.00,40.00,10,5,20,0.00
2013-12-20,22.0,19.3,16.0,19.0,14.5,11.0,91,81,74,0.00,40.00,9,6,19,0.00
2013-12-21,27.0,22.7,20.0,21.0,17.5,-99.9,95,84,72,0.00,40.00,9,4,17,0.00
2013-12-22,25.0,21.9,18.0,21.0,17.7,14.0,93,84,70,0.00,40.00,8,5,16,0.00
2013-12-23,18.0,10.8,-5.0,16.0,6.7,-10.0,92,83,73,0.00,40.00,8,4,14,0.00
2013-12-24,12.0,0.4,-19.0,5.0,-6.5,-26.0,85,72,62,0.00,40.00,9,4,15,0.00
2013-12-25,17.0,12.1,8.0,15.0,8.0,3.0,90,83,79,0.00,40.00,11,6,16,0.00
2013-12-26,19.0,14.2,7.0,13.0,9.0,4.0,87,79,70,0.00,40.00,12,3,18,0.18
2013-12-27,33.0,22.6,6.0,27.0,18.5,2.0,94,84,73,0.00,40.00,9,4,17,0.16
2013-12-28,43.0,28.2,14.0,32.0,22.6,-99.9,98,84,60,0.00,40.00,8,3,12,0.05
2013-12-29,29.0,10.5,-12.0,28.0,1.9,-20.0,95,68,51,0.00,40.00,14,10,26,0.01
2013-12-30,-3.0,-8.5,-23.0,-11.0,-19.5,-31.0,73,59,41,0.00,40.00,5,3,9,0.00
2013-12-31,1.0,-4.4,-17.0,-10.0,-13.1,-25.0,74,66,49,0.00,40.00,9,5,16,0.00
2014-1-1,7.0,-0.7,-17.0,-7.0,-11.3,-25.0,70,60,48,0.00,40.00,8,4,12,0.00
2014-1-2,10.0,1.1,-10.0,-8.0,-9.7,-15.0,76,60,42,0.00,40.00,9,5,20,0.00